sensor_id;sensor_type;location;lat;lon;timestamp;P1;durP1;ratioP1;P2;durP2;ratioP2
36441;SDS011;64346;50.820;16.274;2023-05-29T00:00:22;25.38;;;11.00;;
36441;SDS011;64346;50.820;16.274;2023-05-29T00:03:09;19.85;;;9.70;;
36441;SDS011;64346;50.820;16.274;2023-05-29T00:05:37;25.35;;;10.68;;
36441;SDS011;64346;50.820;16.274;2023-05-29T00:08:07;22.73;;;9.55;;
36441;SDS011;64346;50.820;16.274;2023-05-29T00:10:34;20.63;;;9.02;;
36441;SDS011;64346;50.820;16.274;2023-05-29T00:13:01;21.92;;;9.38;;
36441;SDS011;64346;50.820;16.274;2023-05-29T00:15:31;21.40;;;8.23;;
36441;SDS011;64346;50.820;16.274;2023-05-29T00:17:58;20.48;;;6.22;;
36441;SDS011;64346;50.820;16.274;2023-05-29T00:20:25;14.88;;;6.38;;
36441;SDS011;64346;50.820;16.274;2023-05-29T00:22:52;13.23;;;5.07;;
36441;SDS011;64346;50.820;16.274;2023-05-29T00:25:20;14.38;;;5.80;;
36441;SDS011;64346;50.820;16.274;2023-05-29T00:27:47;15.27;;;4.90;;
36441;SDS011;64346;50.820;16.274;2023-05-29T00:30:16;14.52;;;5.60;;
36441;SDS011;64346;50.820;16.274;2023-05-29T00:32:44;15.05;;;5.43;;
36441;SDS011;64346;50.820;16.274;2023-05-29T00:35:13;20.05;;;6.75;;
36441;SDS011;64346;50.820;16.274;2023-05-29T00:37:40;16.60;;;6.32;;
36441;SDS011;64346;50.820;16.274;2023-05-29T00:40:08;14.68;;;5.55;;
36441;SDS011;64346;50.820;16.274;2023-05-29T00:42:36;14.63;;;6.03;;
36441;SDS011;64346;50.820;16.274;2023-05-29T00:45:04;16.38;;;6.40;;
36441;SDS011;64346;50.820;16.274;2023-05-29T00:47:32;14.02;;;5.78;;
36441;SDS011;64346;50.820;16.274;2023-05-29T00:49:59;12.63;;;5.95;;
36441;SDS011;64346;50.820;16.274;2023-05-29T00:52:28;16.08;;;6.57;;
36441;SDS011;64346;50.820;16.274;2023-05-29T00:54:56;14.00;;;6.20;;
36441;SDS011;64346;50.820;16.274;2023-05-29T00:57:23;16.90;;;6.38;;
36441;SDS011;64346;50.820;16.274;2023-05-29T00:59:51;19.25;;;6.50;;
36441;SDS011;64346;50.820;16.274;2023-05-29T01:02:18;15.68;;;5.78;;
36441;SDS011;64346;50.820;16.274;2023-05-29T01:04:49;10.75;;;5.05;;
36441;SDS011;64346;50.820;16.274;2023-05-29T01:07:17;15.45;;;6.20;;
36441;SDS011;64346;50.820;16.274;2023-05-29T01:09:44;14.65;;;6.60;;
36441;SDS011;64346;50.820;16.274;2023-05-29T01:15:09;28.40;;;11.82;;
36441;SDS011;64346;50.820;16.274;2023-05-29T01:20:33;22.00;;;9.98;;
36441;SDS011;64346;50.820;16.274;2023-05-29T01:28:47;23.60;;;10.75;;
36441;SDS011;64346;50.820;16.274;2023-05-29T01:31:17;23.10;;;10.30;;
36441;SDS011;64346;50.820;16.274;2023-05-29T01:36:22;24.15;;;11.27;;
36441;SDS011;64346;50.820;16.274;2023-05-29T01:38:50;22.90;;;11.60;;
36441;SDS011;64346;50.820;16.274;2023-05-29T01:41:19;22.38;;;10.52;;
36441;SDS011;64346;50.820;16.274;2023-05-29T01:43:48;23.70;;;10.07;;
36441;SDS011;64346;50.820;16.274;2023-05-29T01:46:16;22.98;;;10.13;;
36441;SDS011;64346;50.820;16.274;2023-05-29T01:48:45;22.48;;;10.13;;
36441;SDS011;64346;50.820;16.274;2023-05-29T01:51:13;23.02;;;10.15;;
36441;SDS011;64346;50.820;16.274;2023-05-29T01:53:41;22.00;;;10.13;;
36441;SDS011;64346;50.820;16.274;2023-05-29T01:56:09;23.15;;;9.90;;
36441;SDS011;64346;50.820;16.274;2023-05-29T01:58:39;20.95;;;8.90;;
36441;SDS011;64346;50.820;16.274;2023-05-29T02:01:09;16.95;;;7.03;;
36441;SDS011;64346;50.820;16.274;2023-05-29T02:03:39;21.80;;;8.50;;
36441;SDS011;64346;50.820;16.274;2023-05-29T02:06:06;18.08;;;7.75;;
36441;SDS011;64346;50.820;16.274;2023-05-29T02:08:33;17.00;;;8.27;;
36441;SDS011;64346;50.820;16.274;2023-05-29T02:11:01;17.88;;;7.50;;
36441;SDS011;64346;50.820;16.274;2023-05-29T02:13:28;19.40;;;7.60;;
36441;SDS011;64346;50.820;16.274;2023-05-29T02:15:55;21.15;;;8.70;;
36441;SDS011;64346;50.820;16.274;2023-05-29T02:18:23;16.80;;;7.78;;
36441;SDS011;64346;50.820;16.274;2023-05-29T02:20:50;23.08;;;9.15;;
36441;SDS011;64346;50.820;16.274;2023-05-29T02:23:18;18.52;;;8.43;;
36441;SDS011;64346;50.820;16.274;2023-05-29T02:25:45;24.20;;;9.32;;
36441;SDS011;64346;50.820;16.274;2023-05-29T02:28:13;22.15;;;8.98;;
36441;SDS011;64346;50.820;16.274;2023-05-29T02:30:40;18.15;;;8.18;;
36441;SDS011;64346;50.820;16.274;2023-05-29T02:33:09;19.80;;;7.55;;
36441;SDS011;64346;50.820;16.274;2023-05-29T02:35:37;19.05;;;7.07;;
36441;SDS011;64346;50.820;16.274;2023-05-29T02:38:04;17.48;;;6.90;;
36441;SDS011;64346;50.820;16.274;2023-05-29T02:40:31;16.48;;;6.82;;
36441;SDS011;64346;50.820;16.274;2023-05-29T02:42:58;18.48;;;7.63;;
36441;SDS011;64346;50.820;16.274;2023-05-29T02:45:28;18.63;;;7.63;;
36441;SDS011;64346;50.820;16.274;2023-05-29T02:47:58;17.13;;;6.78;;
36441;SDS011;64346;50.820;16.274;2023-05-29T02:50:28;17.65;;;6.50;;
36441;SDS011;64346;50.820;16.274;2023-05-29T02:52:55;16.48;;;6.78;;
36441;SDS011;64346;50.820;16.274;2023-05-29T02:55:23;17.25;;;8.18;;
36441;SDS011;64346;50.820;16.274;2023-05-29T02:57:50;15.30;;;6.90;;
36441;SDS011;64346;50.820;16.274;2023-05-29T03:03:09;15.65;;;6.97;;
36441;SDS011;64346;50.820;16.274;2023-05-29T03:05:36;17.77;;;7.50;;
36441;SDS011;64346;50.820;16.274;2023-05-29T03:08:04;18.88;;;7.45;;
36441;SDS011;64346;50.820;16.274;2023-05-29T03:10:31;14.98;;;6.95;;
36441;SDS011;64346;50.820;16.274;2023-05-29T03:12:58;16.05;;;6.97;;
36441;SDS011;64346;50.820;16.274;2023-05-29T03:15:26;19.17;;;7.75;;
36441;SDS011;64346;50.820;16.274;2023-05-29T03:17:53;20.25;;;7.90;;
36441;SDS011;64346;50.820;16.274;2023-05-29T03:20:25;20.10;;;8.35;;
36441;SDS011;64346;50.820;16.274;2023-05-29T03:22:52;21.10;;;9.05;;
36441;SDS011;64346;50.820;16.274;2023-05-29T03:25:20;21.98;;;9.32;;
36441;SDS011;64346;50.820;16.274;2023-05-29T03:27:49;17.33;;;7.93;;
36441;SDS011;64346;50.820;16.274;2023-05-29T03:30:16;19.95;;;9.52;;
36441;SDS011;64346;50.820;16.274;2023-05-29T03:32:43;19.90;;;8.75;;
36441;SDS011;64346;50.820;16.274;2023-05-29T03:35:13;25.27;;;9.52;;
36441;SDS011;64346;50.820;16.274;2023-05-29T03:37:40;23.17;;;9.80;;
36441;SDS011;64346;50.820;16.274;2023-05-29T03:40:08;19.67;;;8.43;;
36441;SDS011;64346;50.820;16.274;2023-05-29T03:42:38;19.17;;;9.05;;
36441;SDS011;64346;50.820;16.274;2023-05-29T03:45:05;17.95;;;8.40;;
36441;SDS011;64346;50.820;16.274;2023-05-29T03:47:33;19.58;;;8.23;;
36441;SDS011;64346;50.820;16.274;2023-05-29T03:50:00;22.25;;;8.70;;
36441;SDS011;64346;50.820;16.274;2023-05-29T03:52:27;20.33;;;8.18;;
36441;SDS011;64346;50.820;16.274;2023-05-29T03:54:57;18.17;;;8.30;;
36441;SDS011;64346;50.820;16.274;2023-05-29T03:57:25;20.38;;;8.95;;
36441;SDS011;64346;50.820;16.274;2023-05-29T03:59:54;16.45;;;8.18;;
36441;SDS011;64346;50.820;16.274;2023-05-29T04:02:22;16.73;;;7.30;;
36441;SDS011;64346;50.820;16.274;2023-05-29T04:04:49;21.90;;;7.55;;
36441;SDS011;64346;50.820;16.274;2023-05-29T04:07:16;17.00;;;6.30;;
36441;SDS011;64346;50.820;16.274;2023-05-29T04:09:44;15.70;;;6.82;;
36441;SDS011;64346;50.820;16.274;2023-05-29T04:12:13;18.38;;;6.85;;
36441;SDS011;64346;50.820;16.274;2023-05-29T04:14:41;17.85;;;7.80;;
36441;SDS011;64346;50.820;16.274;2023-05-29T04:17:08;15.18;;;5.80;;
36441;SDS011;64346;50.820;16.274;2023-05-29T04:19:35;16.45;;;5.65;;
36441;SDS011;64346;50.820;16.274;2023-05-29T04:22:02;16.92;;;6.03;;
36441;SDS011;64346;50.820;16.274;2023-05-29T04:24:30;12.48;;;5.63;;
36441;SDS011;64346;50.820;16.274;2023-05-29T04:26:59;12.65;;;5.88;;
36441;SDS011;64346;50.820;16.274;2023-05-29T04:29:29;16.40;;;6.20;;
36441;SDS011;64346;50.820;16.274;2023-05-29T04:31:58;14.88;;;5.60;;
36441;SDS011;64346;50.820;16.274;2023-05-29T04:34:29;11.60;;;5.60;;
36441;SDS011;64346;50.820;16.274;2023-05-29T04:36:56;15.93;;;5.90;;
36441;SDS011;64346;50.820;16.274;2023-05-29T04:39:29;15.20;;;6.10;;
36441;SDS011;64346;50.820;16.274;2023-05-29T04:41:59;13.80;;;5.63;;
36441;SDS011;64346;50.820;16.274;2023-05-29T04:44:26;18.13;;;6.57;;
36441;SDS011;64346;50.820;16.274;2023-05-29T04:46:56;14.27;;;6.00;;
36441;SDS011;64346;50.820;16.274;2023-05-29T04:49:23;15.07;;;6.07;;
36441;SDS011;64346;50.820;16.274;2023-05-29T04:51:53;16.00;;;6.32;;
36441;SDS011;64346;50.820;16.274;2023-05-29T04:54:21;15.32;;;6.35;;
36441;SDS011;64346;50.820;16.274;2023-05-29T04:56:49;28.65;;;16.17;;
36441;SDS011;64346;50.820;16.274;2023-05-29T04:59:18;37.25;;;20.27;;
36441;SDS011;64346;50.820;16.274;2023-05-29T05:01:46;21.25;;;8.20;;
36441;SDS011;64346;50.820;16.274;2023-05-29T05:04:16;14.50;;;6.35;;
36441;SDS011;64346;50.820;16.274;2023-05-29T05:06:43;15.48;;;6.88;;
36441;SDS011;64346;50.820;16.274;2023-05-29T05:09:10;17.35;;;7.00;;
36441;SDS011;64346;50.820;16.274;2023-05-29T05:11:37;15.70;;;5.95;;
36441;SDS011;64346;50.820;16.274;2023-05-29T05:14:05;14.30;;;5.63;;
36441;SDS011;64346;50.820;16.274;2023-05-29T05:16:32;17.95;;;6.15;;
36441;SDS011;64346;50.820;16.274;2023-05-29T05:18:59;13.35;;;5.72;;
36441;SDS011;64346;50.820;16.274;2023-05-29T05:21:29;12.82;;;5.40;;
36441;SDS011;64346;50.820;16.274;2023-05-29T05:23:56;14.00;;;5.00;;
36441;SDS011;64346;50.820;16.274;2023-05-29T05:26:26;16.00;;;7.03;;
36441;SDS011;64346;50.820;16.274;2023-05-29T05:28:56;15.23;;;5.50;;
36441;SDS011;64346;50.820;16.274;2023-05-29T05:31:23;10.30;;;4.40;;
36441;SDS011;64346;50.820;16.274;2023-05-29T05:33:51;12.07;;;4.25;;
36441;SDS011;64346;50.820;16.274;2023-05-29T05:36:18;8.98;;;3.20;;
36441;SDS011;64346;50.820;16.274;2023-05-29T05:38:46;10.73;;;4.40;;
36441;SDS011;64346;50.820;16.274;2023-05-29T05:41:15;13.43;;;7.43;;
36441;SDS011;64346;50.820;16.274;2023-05-29T05:43:43;16.30;;;7.28;;
36441;SDS011;64346;50.820;16.274;2023-05-29T05:46:12;9.95;;;3.55;;
36441;SDS011;64346;50.820;16.274;2023-05-29T05:48:42;8.07;;;3.17;;
36441;SDS011;64346;50.820;16.274;2023-05-29T05:51:11;8.10;;;3.42;;
36441;SDS011;64346;50.820;16.274;2023-05-29T05:53:41;8.15;;;3.28;;
36441;SDS011;64346;50.820;16.274;2023-05-29T05:56:08;9.48;;;4.10;;
36441;SDS011;64346;50.820;16.274;2023-05-29T05:58:36;19.67;;;10.80;;
36441;SDS011;64346;50.820;16.274;2023-05-29T06:01:03;19.77;;;12.38;;
36441;SDS011;64346;50.820;16.274;2023-05-29T06:03:33;13.52;;;5.93;;
36441;SDS011;64346;50.820;16.274;2023-05-29T06:06:03;11.10;;;4.63;;
36441;SDS011;64346;50.820;16.274;2023-05-29T06:08:30;12.38;;;4.82;;
36441;SDS011;64346;50.820;16.274;2023-05-29T06:11:02;7.93;;;3.47;;
36441;SDS011;64346;50.820;16.274;2023-05-29T06:13:34;9.68;;;3.20;;
36441;SDS011;64346;50.820;16.274;2023-05-29T06:16:03;7.10;;;2.92;;
36441;SDS011;64346;50.820;16.274;2023-05-29T06:18:31;9.23;;;3.60;;
36441;SDS011;64346;50.820;16.274;2023-05-29T06:20:58;17.08;;;8.93;;
36441;SDS011;64346;50.820;16.274;2023-05-29T06:23:28;8.32;;;3.65;;
36441;SDS011;64346;50.820;16.274;2023-05-29T06:25:55;16.77;;;9.20;;
36441;SDS011;64346;50.820;16.274;2023-05-29T06:28:23;8.25;;;3.30;;
36441;SDS011;64346;50.820;16.274;2023-05-29T06:30:50;8.68;;;3.30;;
36441;SDS011;64346;50.820;16.274;2023-05-29T06:33:18;8.13;;;3.00;;
36441;SDS011;64346;50.820;16.274;2023-05-29T06:35:47;8.13;;;3.03;;
36441;SDS011;64346;50.820;16.274;2023-05-29T06:38:17;7.93;;;2.85;;
36441;SDS011;64346;50.820;16.274;2023-05-29T06:40:44;6.07;;;2.60;;
36441;SDS011;64346;50.820;16.274;2023-05-29T06:43:11;6.60;;;2.95;;
36441;SDS011;64346;50.820;16.274;2023-05-29T06:45:38;8.73;;;3.17;;
36441;SDS011;64346;50.820;16.274;2023-05-29T06:48:06;7.78;;;2.95;;
36441;SDS011;64346;50.820;16.274;2023-05-29T06:50:34;9.05;;;2.85;;
36441;SDS011;64346;50.820;16.274;2023-05-29T06:53:03;7.90;;;2.65;;
36441;SDS011;64346;50.820;16.274;2023-05-29T06:55:32;8.07;;;2.50;;
36441;SDS011;64346;50.820;16.274;2023-05-29T06:58:03;9.40;;;3.15;;
36441;SDS011;64346;50.820;16.274;2023-05-29T07:00:31;5.20;;;2.50;;
36441;SDS011;64346;50.820;16.274;2023-05-29T07:02:58;8.20;;;2.90;;
36441;SDS011;64346;50.820;16.274;2023-05-29T07:05:28;6.10;;;2.30;;
36441;SDS011;64346;50.820;16.274;2023-05-29T07:07:56;8.40;;;2.75;;
36441;SDS011;64346;50.820;16.274;2023-05-29T07:10:25;5.40;;;2.47;;
36441;SDS011;64346;50.820;16.274;2023-05-29T07:12:52;6.65;;;2.83;;
36441;SDS011;64346;50.820;16.274;2023-05-29T07:15:20;12.25;;;4.25;;
36441;SDS011;64346;50.820;16.274;2023-05-29T07:17:47;8.00;;;3.00;;
36441;SDS011;64346;50.820;16.274;2023-05-29T07:20:16;8.52;;;3.25;;
36441;SDS011;64346;50.820;16.274;2023-05-29T07:22:43;9.68;;;2.58;;
36441;SDS011;64346;50.820;16.274;2023-05-29T07:25:13;6.60;;;2.80;;
36441;SDS011;64346;50.820;16.274;2023-05-29T07:27:41;7.65;;;2.35;;
36441;SDS011;64346;50.820;16.274;2023-05-29T07:30:11;6.78;;;2.97;;
36441;SDS011;64346;50.820;16.274;2023-05-29T07:32:40;6.63;;;2.55;;
36441;SDS011;64346;50.820;16.274;2023-05-29T07:35:08;8.80;;;2.60;;
36441;SDS011;64346;50.820;16.274;2023-05-29T07:37:35;5.18;;;2.13;;
36441;SDS011;64346;50.820;16.274;2023-05-29T07:40:03;9.55;;;2.58;;
36441;SDS011;64346;50.820;16.274;2023-05-29T07:42:30;8.52;;;4.20;;
36441;SDS011;64346;50.820;16.274;2023-05-29T07:45:00;6.78;;;2.80;;
36441;SDS011;64346;50.820;16.274;2023-05-29T07:47:27;9.43;;;3.20;;
36441;SDS011;64346;50.820;16.274;2023-05-29T07:49:54;7.65;;;3.08;;
36441;SDS011;64346;50.820;16.274;2023-05-29T07:52:21;7.95;;;3.45;;
36441;SDS011;64346;50.820;16.274;2023-05-29T07:54:52;7.53;;;2.78;;
36441;SDS011;64346;50.820;16.274;2023-05-29T07:57:19;5.75;;;1.98;;
36441;SDS011;64346;50.820;16.274;2023-05-29T07:59:47;9.73;;;4.32;;
36441;SDS011;64346;50.820;16.274;2023-05-29T08:02:14;3.80;;;1.90;;
36441;SDS011;64346;50.820;16.274;2023-05-29T08:04:42;7.00;;;2.70;;
36441;SDS011;64346;50.820;16.274;2023-05-29T08:07:09;6.05;;;2.67;;
36441;SDS011;64346;50.820;16.274;2023-05-29T08:09:36;7.00;;;2.70;;
36441;SDS011;64346;50.820;16.274;2023-05-29T08:12:08;7.78;;;2.97;;
36441;SDS011;64346;50.820;16.274;2023-05-29T08:14:37;5.43;;;3.10;;
36441;SDS011;64346;50.820;16.274;2023-05-29T08:17:04;5.68;;;2.08;;
36441;SDS011;64346;50.820;16.274;2023-05-29T08:19:32;5.90;;;2.30;;
36441;SDS011;64346;50.820;16.274;2023-05-29T08:22:00;5.88;;;2.20;;
36441;SDS011;64346;50.820;16.274;2023-05-29T08:24:31;5.72;;;2.20;;
36441;SDS011;64346;50.820;16.274;2023-05-29T08:26:58;6.28;;;2.35;;
36441;SDS011;64346;50.820;16.274;2023-05-29T08:29:26;8.43;;;2.70;;
36441;SDS011;64346;50.820;16.274;2023-05-29T08:31:53;8.50;;;2.97;;
36441;SDS011;64346;50.820;16.274;2023-05-29T08:34:21;5.47;;;2.65;;
36441;SDS011;64346;50.820;16.274;2023-05-29T08:36:50;5.47;;;2.45;;
36441;SDS011;64346;50.820;16.274;2023-05-29T08:39:18;6.97;;;2.45;;
36441;SDS011;64346;50.820;16.274;2023-05-29T08:44:26;6.50;;;2.20;;
36441;SDS011;64346;50.820;16.274;2023-05-29T08:46:57;4.93;;;2.05;;
36441;SDS011;64346;50.820;16.274;2023-05-29T08:49:42;3.83;;;1.90;;
36441;SDS011;64346;50.820;16.274;2023-05-29T08:52:15;7.72;;;2.28;;
36441;SDS011;64346;50.820;16.274;2023-05-29T08:54:43;5.75;;;2.00;;
36441;SDS011;64346;50.820;16.274;2023-05-29T08:57:11;8.15;;;2.15;;
36441;SDS011;64346;50.820;16.274;2023-05-29T08:59:40;9.77;;;3.65;;
36441;SDS011;64346;50.820;16.274;2023-05-29T09:02:09;5.57;;;2.40;;
36441;SDS011;64346;50.820;16.274;2023-05-29T09:04:37;6.65;;;2.67;;
36441;SDS011;64346;50.820;16.274;2023-05-29T09:07:07;6.22;;;1.85;;
36441;SDS011;64346;50.820;16.274;2023-05-29T09:09:37;7.97;;;2.13;;
36441;SDS011;64346;50.820;16.274;2023-05-29T09:12:04;8.10;;;2.47;;
36441;SDS011;64346;50.820;16.274;2023-05-29T09:17:06;6.78;;;2.63;;
36441;SDS011;64346;50.820;16.274;2023-05-29T09:19:37;9.43;;;3.20;;
36441;SDS011;64346;50.820;16.274;2023-05-29T09:22:05;6.78;;;3.25;;
36441;SDS011;64346;50.820;16.274;2023-05-29T09:24:35;5.97;;;2.20;;
36441;SDS011;64346;50.820;16.274;2023-05-29T09:27:03;6.88;;;2.22;;
36441;SDS011;64346;50.820;16.274;2023-05-29T09:29:31;8.95;;;2.30;;
36441;SDS011;64346;50.820;16.274;2023-05-29T09:31:59;7.45;;;2.92;;
36441;SDS011;64346;50.820;16.274;2023-05-29T09:34:30;7.93;;;2.42;;
36441;SDS011;64346;50.820;16.274;2023-05-29T09:37:01;5.85;;;2.50;;
36441;SDS011;64346;50.820;16.274;2023-05-29T09:39:31;7.70;;;3.00;;
36441;SDS011;64346;50.820;16.274;2023-05-29T09:41:58;5.82;;;2.55;;
36441;SDS011;64346;50.820;16.274;2023-05-29T09:44:26;4.47;;;2.08;;
36441;SDS011;64346;50.820;16.274;2023-05-29T09:46:57;6.18;;;2.30;;
36441;SDS011;64346;50.820;16.274;2023-05-29T09:49:28;5.85;;;2.40;;
36441;SDS011;64346;50.820;16.274;2023-05-29T09:51:57;7.65;;;2.28;;
36441;SDS011;64346;50.820;16.274;2023-05-29T09:54:29;8.00;;;2.33;;
36441;SDS011;64346;50.820;16.274;2023-05-29T09:56:57;8.40;;;2.92;;
36441;SDS011;64346;50.820;16.274;2023-05-29T09:59:27;5.50;;;2.30;;
36441;SDS011;64346;50.820;16.274;2023-05-29T10:02:00;5.07;;;2.03;;
36441;SDS011;64346;50.820;16.274;2023-05-29T10:04:31;7.32;;;3.10;;
36441;SDS011;64346;50.820;16.274;2023-05-29T10:07:07;6.32;;;2.83;;
36441;SDS011;64346;50.820;16.274;2023-05-29T10:09:45;8.65;;;2.80;;
36441;SDS011;64346;50.820;16.274;2023-05-29T10:12:16;7.85;;;3.78;;
36441;SDS011;64346;50.820;16.274;2023-05-29T10:14:48;8.15;;;2.97;;
36441;SDS011;64346;50.820;16.274;2023-05-29T10:17:18;6.40;;;2.35;;
36441;SDS011;64346;50.820;16.274;2023-05-29T10:19:49;4.72;;;2.13;;
36441;SDS011;64346;50.820;16.274;2023-05-29T10:22:21;7.75;;;2.67;;
36441;SDS011;64346;50.820;16.274;2023-05-29T10:24:54;8.98;;;2.80;;
36441;SDS011;64346;50.820;16.274;2023-05-29T10:27:24;6.05;;;2.58;;
36441;SDS011;64346;50.820;16.274;2023-05-29T10:35:42;10.55;;;2.78;;
36441;SDS011;64346;50.820;16.274;2023-05-29T10:38:16;6.47;;;2.33;;
36441;SDS011;64346;50.820;16.274;2023-05-29T10:40:45;5.22;;;2.20;;
36441;SDS011;64346;50.820;16.274;2023-05-29T10:43:31;6.70;;;2.80;;
36441;SDS011;64346;50.820;16.274;2023-05-29T10:46:01;6.68;;;3.22;;
36441;SDS011;64346;50.820;16.274;2023-05-29T10:48:41;6.35;;;2.58;;
36441;SDS011;64346;50.820;16.274;2023-05-29T10:51:23;6.80;;;2.85;;
36441;SDS011;64346;50.820;16.274;2023-05-29T10:53:53;6.60;;;2.50;;
36441;SDS011;64346;50.820;16.274;2023-05-29T10:56:22;9.43;;;2.78;;
36441;SDS011;64346;50.820;16.274;2023-05-29T11:01:22;7.07;;;2.92;;
36441;SDS011;64346;50.820;16.274;2023-05-29T11:03:50;7.18;;;2.60;;
36441;SDS011;64346;50.820;16.274;2023-05-29T11:06:19;8.95;;;3.15;;
36441;SDS011;64346;50.820;16.274;2023-05-29T11:08:47;8.30;;;2.90;;
36441;SDS011;64346;50.820;16.274;2023-05-29T11:18:52;8.60;;;2.88;;
36441;SDS011;64346;50.820;16.274;2023-05-29T11:24:00;10.23;;;3.40;;
36441;SDS011;64346;50.820;16.274;2023-05-29T11:26:33;9.50;;;3.40;;
36441;SDS011;64346;50.820;16.274;2023-05-29T11:29:05;7.43;;;2.70;;
36441;SDS011;64346;50.820;16.274;2023-05-29T11:31:33;9.15;;;3.10;;
36441;SDS011;64346;50.820;16.274;2023-05-29T11:34:01;7.75;;;3.38;;
36441;SDS011;64346;50.820;16.274;2023-05-29T11:36:32;10.43;;;3.72;;
36441;SDS011;64346;50.820;16.274;2023-05-29T11:39:02;10.68;;;3.50;;
36441;SDS011;64346;50.820;16.274;2023-05-29T11:41:32;9.98;;;3.72;;
36441;SDS011;64346;50.820;16.274;2023-05-29T11:44:00;9.13;;;3.05;;
36441;SDS011;64346;50.820;16.274;2023-05-29T11:46:28;8.93;;;2.75;;
36441;SDS011;64346;50.820;16.274;2023-05-29T11:48:56;8.18;;;2.90;;
36441;SDS011;64346;50.820;16.274;2023-05-29T11:51:23;5.90;;;2.65;;
36441;SDS011;64346;50.820;16.274;2023-05-29T11:53:51;8.55;;;3.28;;
36441;SDS011;64346;50.820;16.274;2023-05-29T11:56:21;10.32;;;2.83;;
36441;SDS011;64346;50.820;16.274;2023-05-29T11:58:48;5.68;;;2.85;;
36441;SDS011;64346;50.820;16.274;2023-05-29T12:01:16;8.50;;;3.70;;
36441;SDS011;64346;50.820;16.274;2023-05-29T12:03:43;7.13;;;3.25;;
36441;SDS011;64346;50.820;16.274;2023-05-29T12:06:11;11.20;;;5.13;;
36441;SDS011;64346;50.820;16.274;2023-05-29T12:08:39;6.15;;;2.97;;
36441;SDS011;64346;50.820;16.274;2023-05-29T12:11:06;6.97;;;3.33;;
36441;SDS011;64346;50.820;16.274;2023-05-29T12:13:36;6.32;;;2.67;;
36441;SDS011;64346;50.820;16.274;2023-05-29T12:16:05;7.43;;;2.63;;
36441;SDS011;64346;50.820;16.274;2023-05-29T12:18:33;6.03;;;2.35;;
36441;SDS011;64346;50.820;16.274;2023-05-29T12:21:03;9.82;;;4.30;;
36441;SDS011;64346;50.820;16.274;2023-05-29T12:23:33;9.70;;;4.22;;
36441;SDS011;64346;50.820;16.274;2023-05-29T12:26:00;9.40;;;3.22;;
36441;SDS011;64346;50.820;16.274;2023-05-29T12:28:29;7.07;;;2.90;;
36441;SDS011;64346;50.820;16.274;2023-05-29T12:31:00;9.25;;;4.25;;
36441;SDS011;64346;50.820;16.274;2023-05-29T12:33:28;8.85;;;3.95;;
36441;SDS011;64346;50.820;16.274;2023-05-29T12:36:07;8.77;;;3.03;;
36441;SDS011;64346;50.820;16.274;2023-05-29T12:38:56;6.65;;;3.20;;
36441;SDS011;64346;50.820;16.274;2023-05-29T12:43:56;7.57;;;3.08;;
36441;SDS011;64346;50.820;16.274;2023-05-29T12:46:25;7.90;;;3.00;;
36441;SDS011;64346;50.820;16.274;2023-05-29T12:49:11;6.93;;;2.90;;
36441;SDS011;64346;50.820;16.274;2023-05-29T12:51:45;7.50;;;2.80;;
36441;SDS011;64346;50.820;16.274;2023-05-29T12:54:16;5.65;;;2.63;;
36441;SDS011;64346;50.820;16.274;2023-05-29T12:56:43;7.90;;;3.45;;
36441;SDS011;64346;50.820;16.274;2023-05-29T12:59:11;8.00;;;3.15;;
36441;SDS011;64346;50.820;16.274;2023-05-29T13:01:39;4.75;;;2.90;;
36441;SDS011;64346;50.820;16.274;2023-05-29T13:04:08;7.78;;;2.80;;
36441;SDS011;64346;50.820;16.274;2023-05-29T13:06:39;8.18;;;2.97;;
36441;SDS011;64346;50.820;16.274;2023-05-29T13:09:06;5.13;;;2.28;;
36441;SDS011;64346;50.820;16.274;2023-05-29T13:11:34;7.28;;;2.85;;
36441;SDS011;64346;50.820;16.274;2023-05-29T13:14:06;4.97;;;2.85;;
36441;SDS011;64346;50.820;16.274;2023-05-29T13:16:33;7.68;;;2.88;;
36441;SDS011;64346;50.820;16.274;2023-05-29T13:19:00;8.10;;;2.85;;
36441;SDS011;64346;50.820;16.274;2023-05-29T13:21:28;5.82;;;2.78;;
36441;SDS011;64346;50.820;16.274;2023-05-29T13:23:57;9.15;;;4.22;;
36441;SDS011;64346;50.820;16.274;2023-05-29T13:26:27;8.23;;;3.95;;
36441;SDS011;64346;50.820;16.274;2023-05-29T13:28:56;9.00;;;3.50;;
36441;SDS011;64346;50.820;16.274;2023-05-29T13:31:24;7.30;;;3.10;;
36441;SDS011;64346;50.820;16.274;2023-05-29T13:33:51;6.78;;;2.63;;
36441;SDS011;64346;50.820;16.274;2023-05-29T13:36:18;5.88;;;2.35;;
36441;SDS011;64346;50.820;16.274;2023-05-29T13:38:46;4.70;;;2.28;;
36441;SDS011;64346;50.820;16.274;2023-05-29T13:41:13;9.07;;;3.60;;
36441;SDS011;64346;50.820;16.274;2023-05-29T13:43:40;11.68;;;3.90;;
36441;SDS011;64346;50.820;16.274;2023-05-29T13:46:13;4.95;;;2.70;;
36441;SDS011;64346;50.820;16.274;2023-05-29T13:48:40;8.52;;;3.40;;
36441;SDS011;64346;50.820;16.274;2023-05-29T13:51:08;7.97;;;3.00;;
36441;SDS011;64346;50.820;16.274;2023-05-29T13:53:35;7.68;;;3.47;;
36441;SDS011;64346;50.820;16.274;2023-05-29T13:56:05;7.57;;;3.20;;
36441;SDS011;64346;50.820;16.274;2023-05-29T13:58:34;7.90;;;3.90;;
36441;SDS011;64346;50.820;16.274;2023-05-29T14:01:01;7.60;;;3.38;;
36441;SDS011;64346;50.820;16.274;2023-05-29T14:03:31;7.60;;;3.60;;
36441;SDS011;64346;50.820;16.274;2023-05-29T14:05:59;9.02;;;3.22;;
36441;SDS011;64346;50.820;16.274;2023-05-29T14:08:26;8.23;;;3.25;;
36441;SDS011;64346;50.820;16.274;2023-05-29T14:10:53;5.80;;;2.95;;
36441;SDS011;64346;50.820;16.274;2023-05-29T14:13:21;7.60;;;3.03;;
36441;SDS011;64346;50.820;16.274;2023-05-29T14:15:48;10.13;;;3.92;;
36441;SDS011;64346;50.820;16.274;2023-05-29T14:18:15;13.50;;;5.38;;
36441;SDS011;64346;50.820;16.274;2023-05-29T14:20:43;9.55;;;3.70;;
36441;SDS011;64346;50.820;16.274;2023-05-29T14:23:10;13.48;;;5.07;;
36441;SDS011;64346;50.820;16.274;2023-05-29T14:25:37;7.60;;;3.65;;
36441;SDS011;64346;50.820;16.274;2023-05-29T14:28:05;7.03;;;2.90;;
36441;SDS011;64346;50.820;16.274;2023-05-29T14:30:32;9.07;;;3.42;;
36441;SDS011;64346;50.820;16.274;2023-05-29T14:32:59;7.38;;;3.60;;
36441;SDS011;64346;50.820;16.274;2023-05-29T14:35:29;8.77;;;3.83;;
36441;SDS011;64346;50.820;16.274;2023-05-29T14:37:57;10.20;;;4.10;;
36441;SDS011;64346;50.820;16.274;2023-05-29T14:40:25;9.68;;;2.92;;
36441;SDS011;64346;50.820;16.274;2023-05-29T14:42:52;7.97;;;2.92;;
36441;SDS011;64346;50.820;16.274;2023-05-29T14:45:22;6.72;;;2.70;;
36441;SDS011;64346;50.820;16.274;2023-05-29T14:47:49;8.05;;;2.83;;
36441;SDS011;64346;50.820;16.274;2023-05-29T14:50:17;6.47;;;3.10;;
36441;SDS011;64346;50.820;16.274;2023-05-29T14:52:47;7.72;;;3.17;;
36441;SDS011;64346;50.820;16.274;2023-05-29T14:55:14;7.88;;;3.63;;
36441;SDS011;64346;50.820;16.274;2023-05-29T14:57:41;6.47;;;3.38;;
36441;SDS011;64346;50.820;16.274;2023-05-29T15:00:09;7.85;;;3.20;;
36441;SDS011;64346;50.820;16.274;2023-05-29T15:02:36;9.38;;;3.90;;
36441;SDS011;64346;50.820;16.274;2023-05-29T15:05:04;11.52;;;4.35;;
36441;SDS011;64346;50.820;16.274;2023-05-29T15:07:34;10.55;;;3.92;;
36441;SDS011;64346;50.820;16.274;2023-05-29T15:10:02;7.78;;;3.85;;
36441;SDS011;64346;50.820;16.274;2023-05-29T15:12:32;8.40;;;3.75;;
36441;SDS011;64346;50.820;16.274;2023-05-29T15:14:59;6.63;;;3.42;;
36441;SDS011;64346;50.820;16.274;2023-05-29T15:17:29;8.00;;;3.28;;
36441;SDS011;64346;50.820;16.274;2023-05-29T15:19:56;10.10;;;4.05;;